sensor_id;sensor_type;location;lat;lon;timestamp;P1;durP1;ratioP1;P2;durP2;ratioP2
74632;SDS011;63139;52.018;8.552;2023-04-24T00:01:16;0.80;;;0.80;;
74632;SDS011;63139;52.018;8.552;2023-04-24T00:03:47;0.70;;;0.70;;
74632;SDS011;63139;52.018;8.552;2023-04-24T00:06:15;1.17;;;1.00;;
74632;SDS011;63139;52.018;8.552;2023-04-24T00:08:43;0.90;;;0.90;;
74632;SDS011;63139;52.018;8.552;2023-04-24T00:11:13;0.90;;;0.90;;
74632;SDS011;63139;52.018;8.552;2023-04-24T00:13:41;1.10;;;1.00;;
74632;SDS011;63139;52.018;8.552;2023-04-24T00:16:09;1.77;;;1.00;;
74632;SDS011;63139;52.018;8.552;2023-04-24T00:18:39;1.25;;;1.00;;
74632;SDS011;63139;52.018;8.552;2023-04-24T00:21:09;0.90;;;0.90;;
74632;SDS011;63139;52.018;8.552;2023-04-24T00:23:36;1.02;;;1.00;;
74632;SDS011;63139;52.018;8.552;2023-04-24T00:26:04;1.13;;;1.00;;
74632;SDS011;63139;52.018;8.552;2023-04-24T00:28:32;1.17;;;1.10;;
74632;SDS011;63139;52.018;8.552;2023-04-24T00:31:00;1.00;;;1.00;;
74632;SDS011;63139;52.018;8.552;2023-04-24T00:33:28;1.40;;;1.10;;
74632;SDS011;63139;52.018;8.552;2023-04-24T00:35:55;1.55;;;1.30;;
74632;SDS011;63139;52.018;8.552;2023-04-24T00:38:24;1.00;;;1.00;;
74632;SDS011;63139;52.018;8.552;2023-04-24T00:40:52;1.08;;;1.00;;
74632;SDS011;63139;52.018;8.552;2023-04-24T00:43:21;1.08;;;0.98;;
74632;SDS011;63139;52.018;8.552;2023-04-24T00:45:49;1.45;;;1.10;;
74632;SDS011;63139;52.018;8.552;2023-04-24T00:48:17;2.83;;;1.00;;
74632;SDS011;63139;52.018;8.552;2023-04-24T00:50:45;0.85;;;0.82;;
74632;SDS011;63139;52.018;8.552;2023-04-24T00:53:13;0.82;;;0.82;;
74632;SDS011;63139;52.018;8.552;2023-04-24T00:55:42;2.80;;;1.00;;
74632;SDS011;63139;52.018;8.552;2023-04-24T00:58:10;1.00;;;1.00;;
74632;SDS011;63139;52.018;8.552;2023-04-24T01:00:38;2.20;;;1.10;;
74632;SDS011;63139;52.018;8.552;2023-04-24T01:03:07;1.17;;;1.08;;
74632;SDS011;63139;52.018;8.552;2023-04-24T01:05:35;1.00;;;0.90;;
74632;SDS011;63139;52.018;8.552;2023-04-24T01:08:03;0.90;;;0.80;;
74632;SDS011;63139;52.018;8.552;2023-04-24T01:10:31;0.98;;;0.98;;
74632;SDS011;63139;52.018;8.552;2023-04-24T01:13:03;0.90;;;0.90;;
74632;SDS011;63139;52.018;8.552;2023-04-24T01:15:31;1.05;;;1.00;;
74632;SDS011;63139;52.018;8.552;2023-04-24T01:17:59;1.20;;;1.13;;
74632;SDS011;63139;52.018;8.552;2023-04-24T01:20:27;3.13;;;1.15;;
74632;SDS011;63139;52.018;8.552;2023-04-24T01:22:57;1.02;;;1.00;;
74632;SDS011;63139;52.018;8.552;2023-04-24T01:25:26;1.30;;;1.20;;
74632;SDS011;63139;52.018;8.552;2023-04-24T01:27:56;1.05;;;1.00;;
74632;SDS011;63139;52.018;8.552;2023-04-24T01:30:24;1.15;;;1.10;;
74632;SDS011;63139;52.018;8.552;2023-04-24T01:32:52;2.58;;;1.00;;
74632;SDS011;63139;52.018;8.552;2023-04-24T01:35:20;1.30;;;1.10;;
74632;SDS011;63139;52.018;8.552;2023-04-24T01:37:48;1.00;;;1.00;;
74632;SDS011;63139;52.018;8.552;2023-04-24T01:40:17;1.20;;;1.10;;
74632;SDS011;63139;52.018;8.552;2023-04-24T01:42:45;1.20;;;1.10;;
74632;SDS011;63139;52.018;8.552;2023-04-24T01:45:14;1.98;;;1.00;;
74632;SDS011;63139;52.018;8.552;2023-04-24T01:47:41;1.95;;;1.00;;
74632;SDS011;63139;52.018;8.552;2023-04-24T01:50:10;1.50;;;1.00;;
74632;SDS011;63139;52.018;8.552;2023-04-24T01:52:38;1.05;;;0.95;;
74632;SDS011;63139;52.018;8.552;2023-04-24T01:55:06;1.27;;;1.00;;
74632;SDS011;63139;52.018;8.552;2023-04-24T01:57:36;1.00;;;1.00;;
74632;SDS011;63139;52.018;8.552;2023-04-24T02:00:04;1.00;;;1.00;;
74632;SDS011;63139;52.018;8.552;2023-04-24T02:02:39;1.02;;;1.00;;
74632;SDS011;63139;52.018;8.552;2023-04-24T02:05:11;1.85;;;1.20;;
74632;SDS011;63139;52.018;8.552;2023-04-24T02:07:38;1.10;;;1.00;;
74632;SDS011;63139;52.018;8.552;2023-04-24T02:10:08;2.63;;;1.33;;
74632;SDS011;63139;52.018;8.552;2023-04-24T02:12:42;1.50;;;1.40;;
74632;SDS011;63139;52.018;8.552;2023-04-24T02:15:10;1.73;;;1.48;;
74632;SDS011;63139;52.018;8.552;2023-04-24T02:17:38;1.42;;;1.30;;
74632;SDS011;63139;52.018;8.552;2023-04-24T02:20:07;1.92;;;1.02;;
74632;SDS011;63139;52.018;8.552;2023-04-24T02:22:35;2.08;;;1.20;;
74632;SDS011;63139;52.018;8.552;2023-04-24T02:25:03;1.35;;;1.17;;
74632;SDS011;63139;52.018;8.552;2023-04-24T02:27:31;2.45;;;1.10;;
74632;SDS011;63139;52.018;8.552;2023-04-24T02:30:00;1.45;;;1.30;;
74632;SDS011;63139;52.018;8.552;2023-04-24T02:32:29;1.88;;;1.60;;
74632;SDS011;63139;52.018;8.552;2023-04-24T02:34:57;2.53;;;1.40;;
74632;SDS011;63139;52.018;8.552;2023-04-24T02:37:25;1.50;;;1.40;;
74632;SDS011;63139;52.018;8.552;2023-04-24T02:39:53;1.42;;;1.33;;
74632;SDS011;63139;52.018;8.552;2023-04-24T02:42:21;1.52;;;1.20;;
74632;SDS011;63139;52.018;8.552;2023-04-24T02:44:49;1.85;;;1.15;;
74632;SDS011;63139;52.018;8.552;2023-04-24T02:47:19;1.35;;;1.25;;
74632;SDS011;63139;52.018;8.552;2023-04-24T02:49:48;1.60;;;1.20;;
74632;SDS011;63139;52.018;8.552;2023-04-24T02:52:15;1.25;;;1.13;;
74632;SDS011;63139;52.018;8.552;2023-04-24T02:54:43;1.10;;;1.10;;
74632;SDS011;63139;52.018;8.552;2023-04-24T02:57:11;1.10;;;1.10;;
74632;SDS011;63139;52.018;8.552;2023-04-24T02:59:41;1.15;;;1.10;;
74632;SDS011;63139;52.018;8.552;2023-04-24T03:02:09;1.52;;;1.02;;
74632;SDS011;63139;52.018;8.552;2023-04-24T03:04:38;1.80;;;1.20;;
74632;SDS011;63139;52.018;8.552;2023-04-24T03:07:09;1.10;;;1.10;;
74632;SDS011;63139;52.018;8.552;2023-04-24T03:09:37;1.10;;;1.10;;
74632;SDS011;63139;52.018;8.552;2023-04-24T03:12:05;1.27;;;1.17;;
74632;SDS011;63139;52.018;8.552;2023-04-24T03:14:32;1.83;;;0.90;;
74632;SDS011;63139;52.018;8.552;2023-04-24T03:17:00;2.08;;;0.88;;
74632;SDS011;63139;52.018;8.552;2023-04-24T03:19:28;0.73;;;0.73;;
74632;SDS011;63139;52.018;8.552;2023-04-24T03:22:03;1.00;;;1.00;;
74632;SDS011;63139;52.018;8.552;2023-04-24T03:24:32;0.88;;;0.88;;
74632;SDS011;63139;52.018;8.552;2023-04-24T03:27:00;0.82;;;0.82;;
74632;SDS011;63139;52.018;8.552;2023-04-24T03:29:54;0.93;;;0.93;;
74632;SDS011;63139;52.018;8.552;2023-04-24T03:32:33;1.30;;;1.20;;
74632;SDS011;63139;52.018;8.552;2023-04-24T03:35:01;1.00;;;1.00;;
74632;SDS011;63139;52.018;8.552;2023-04-24T03:37:31;1.30;;;1.20;;
74632;SDS011;63139;52.018;8.552;2023-04-24T03:40:37;1.45;;;1.10;;
74632;SDS011;63139;52.018;8.552;2023-04-24T03:43:16;1.02;;;0.90;;
74632;SDS011;63139;52.018;8.552;2023-04-24T03:45:44;1.05;;;0.98;;
74632;SDS011;63139;52.018;8.552;2023-04-24T03:48:13;1.90;;;1.20;;
74632;SDS011;63139;52.018;8.552;2023-04-24T03:50:41;1.50;;;1.38;;
74632;SDS011;63139;52.018;8.552;2023-04-24T03:53:12;1.52;;;1.33;;
74632;SDS011;63139;52.018;8.552;2023-04-24T03:55:40;1.63;;;1.27;;
74632;SDS011;63139;52.018;8.552;2023-04-24T03:58:09;1.60;;;1.40;;
74632;SDS011;63139;52.018;8.552;2023-04-24T04:00:37;1.65;;;1.33;;
74632;SDS011;63139;52.018;8.552;2023-04-24T04:03:42;1.55;;;1.20;;
74632;SDS011;63139;52.018;8.552;2023-04-24T04:06:10;2.85;;;1.60;;
74632;SDS011;63139;52.018;8.552;2023-04-24T04:08:41;1.95;;;1.80;;
74632;SDS011;63139;52.018;8.552;2023-04-24T04:11:08;2.25;;;1.35;;
74632;SDS011;63139;52.018;8.552;2023-04-24T04:13:36;1.80;;;1.50;;
74632;SDS011;63139;52.018;8.552;2023-04-24T04:16:04;1.63;;;1.52;;
74632;SDS011;63139;52.018;8.552;2023-04-24T04:18:32;2.58;;;1.90;;
74632;SDS011;63139;52.018;8.552;2023-04-24T04:21:01;2.13;;;1.85;;
74632;SDS011;63139;52.018;8.552;2023-04-24T04:23:29;2.00;;;1.80;;
74632;SDS011;63139;52.018;8.552;2023-04-24T04:26:08;3.15;;;1.90;;
74632;SDS011;63139;52.018;8.552;2023-04-24T04:28:49;2.75;;;2.03;;
74632;SDS011;63139;52.018;8.552;2023-04-24T04:31:17;3.28;;;2.25;;
74632;SDS011;63139;52.018;8.552;2023-04-24T04:33:45;2.40;;;2.03;;
74632;SDS011;63139;52.018;8.552;2023-04-24T04:36:12;2.35;;;1.90;;
74632;SDS011;63139;52.018;8.552;2023-04-24T04:38:44;2.22;;;1.80;;
74632;SDS011;63139;52.018;8.552;2023-04-24T04:41:25;2.00;;;1.80;;
74632;SDS011;63139;52.018;8.552;2023-04-24T04:43:53;3.38;;;2.15;;
74632;SDS011;63139;52.018;8.552;2023-04-24T04:46:21;5.15;;;3.15;;
74632;SDS011;63139;52.018;8.552;2023-04-24T04:49:01;5.15;;;2.80;;
74632;SDS011;63139;52.018;8.552;2023-04-24T04:51:29;2.80;;;2.20;;
74632;SDS011;63139;52.018;8.552;2023-04-24T04:53:58;5.72;;;3.20;;
74632;SDS011;63139;52.018;8.552;2023-04-24T04:56:27;4.28;;;3.45;;
74632;SDS011;63139;52.018;8.552;2023-04-24T04:58:58;4.18;;;3.38;;
74632;SDS011;63139;52.018;8.552;2023-04-24T05:01:26;5.50;;;4.63;;
74632;SDS011;63139;52.018;8.552;2023-04-24T05:03:55;6.68;;;4.68;;
74632;SDS011;63139;52.018;8.552;2023-04-24T05:06:22;6.45;;;4.90;;
74632;SDS011;63139;52.018;8.552;2023-04-24T05:08:51;7.78;;;5.53;;
74632;SDS011;63139;52.018;8.552;2023-04-24T05:11:40;9.50;;;6.45;;
74632;SDS011;63139;52.018;8.552;2023-04-24T05:14:07;9.00;;;6.80;;
74632;SDS011;63139;52.018;8.552;2023-04-24T05:16:37;9.57;;;5.93;;
74632;SDS011;63139;52.018;8.552;2023-04-24T05:19:06;9.48;;;5.85;;
74632;SDS011;63139;52.018;8.552;2023-04-24T05:21:39;8.73;;;5.88;;
74632;SDS011;63139;52.018;8.552;2023-04-24T05:24:08;7.05;;;5.43;;
74632;SDS011;63139;52.018;8.552;2023-04-24T05:26:50;8.48;;;6.13;;
74632;SDS011;63139;52.018;8.552;2023-04-24T05:29:23;11.25;;;6.78;;
74632;SDS011;63139;52.018;8.552;2023-04-24T05:31:52;9.40;;;6.00;;
74632;SDS011;63139;52.018;8.552;2023-04-24T05:34:21;9.57;;;6.25;;
74632;SDS011;63139;52.018;8.552;2023-04-24T05:36:53;8.70;;;6.70;;
74632;SDS011;63139;52.018;8.552;2023-04-24T05:39:21;8.25;;;6.50;;
74632;SDS011;63139;52.018;8.552;2023-04-24T05:41:52;9.57;;;6.68;;
74632;SDS011;63139;52.018;8.552;2023-04-24T05:44:21;7.60;;;6.22;;
74632;SDS011;63139;52.018;8.552;2023-04-24T05:46:49;9.18;;;6.88;;
74632;SDS011;63139;52.018;8.552;2023-04-24T05:49:17;7.68;;;6.13;;
74632;SDS011;63139;52.018;8.552;2023-04-24T05:51:45;9.43;;;6.95;;
74632;SDS011;63139;52.018;8.552;2023-04-24T05:54:13;9.15;;;7.28;;
74632;SDS011;63139;52.018;8.552;2023-04-24T05:56:41;10.07;;;8.10;;
74632;SDS011;63139;52.018;8.552;2023-04-24T05:59:13;10.45;;;7.70;;
74632;SDS011;63139;52.018;8.552;2023-04-24T06:01:41;8.85;;;7.30;;
74632;SDS011;63139;52.018;8.552;2023-04-24T06:04:14;10.27;;;7.35;;
74632;SDS011;63139;52.018;8.552;2023-04-24T06:06:42;14.30;;;9.10;;
74632;SDS011;63139;52.018;8.552;2023-04-24T06:09:10;11.32;;;8.20;;
74632;SDS011;63139;52.018;8.552;2023-04-24T06:11:38;12.52;;;8.02;;
74632;SDS011;63139;52.018;8.552;2023-04-24T06:14:09;11.45;;;8.25;;
74632;SDS011;63139;52.018;8.552;2023-04-24T06:16:38;13.30;;;8.40;;
74632;SDS011;63139;52.018;8.552;2023-04-24T06:19:17;12.23;;;8.75;;
74632;SDS011;63139;52.018;8.552;2023-04-24T06:21:45;12.50;;;9.55;;
74632;SDS011;63139;52.018;8.552;2023-04-24T06:24:13;15.52;;;8.93;;
74632;SDS011;63139;52.018;8.552;2023-04-24T06:26:42;10.57;;;7.93;;
74632;SDS011;63139;52.018;8.552;2023-04-24T06:29:09;11.23;;;8.27;;
74632;SDS011;63139;52.018;8.552;2023-04-24T06:31:39;9.57;;;8.13;;
74632;SDS011;63139;52.018;8.552;2023-04-24T06:34:07;12.52;;;8.43;;
74632;SDS011;63139;52.018;8.552;2023-04-24T06:36:34;11.68;;;8.88;;
74632;SDS011;63139;52.018;8.552;2023-04-24T06:39:02;11.88;;;7.70;;
74632;SDS011;63139;52.018;8.552;2023-04-24T06:41:31;9.98;;;8.48;;
74632;SDS011;63139;52.018;8.552;2023-04-24T06:43:58;9.50;;;8.07;;
74632;SDS011;63139;52.018;8.552;2023-04-24T06:46:26;14.40;;;8.93;;
74632;SDS011;63139;52.018;8.552;2023-04-24T06:48:56;11.65;;;8.00;;
74632;SDS011;63139;52.018;8.552;2023-04-24T06:51:23;11.07;;;8.20;;
74632;SDS011;63139;52.018;8.552;2023-04-24T06:53:52;12.55;;;7.82;;
74632;SDS011;63139;52.018;8.552;2023-04-24T06:56:22;12.77;;;8.73;;
74632;SDS011;63139;52.018;8.552;2023-04-24T06:58:50;10.60;;;7.93;;
74632;SDS011;63139;52.018;8.552;2023-04-24T07:01:18;10.23;;;8.25;;
74632;SDS011;63139;52.018;8.552;2023-04-24T07:03:46;11.70;;;8.90;;
74632;SDS011;63139;52.018;8.552;2023-04-24T07:06:15;11.05;;;8.20;;
74632;SDS011;63139;52.018;8.552;2023-04-24T07:08:44;13.23;;;8.65;;
74632;SDS011;63139;52.018;8.552;2023-04-24T07:11:12;12.45;;;8.70;;
74632;SDS011;63139;52.018;8.552;2023-04-24T07:13:40;11.93;;;9.20;;
74632;SDS011;63139;52.018;8.552;2023-04-24T07:16:09;9.20;;;7.57;;
74632;SDS011;63139;52.018;8.552;2023-04-24T07:18:37;10.60;;;8.15;;
74632;SDS011;63139;52.018;8.552;2023-04-24T07:21:06;9.43;;;7.30;;
74632;SDS011;63139;52.018;8.552;2023-04-24T07:23:35;13.32;;;9.70;;
74632;SDS011;63139;52.018;8.552;2023-04-24T07:26:03;10.27;;;8.20;;
74632;SDS011;63139;52.018;8.552;2023-04-24T07:28:31;11.52;;;8.10;;
74632;SDS011;63139;52.018;8.552;2023-04-24T07:30:59;8.65;;;7.50;;
74632;SDS011;63139;52.018;8.552;2023-04-24T07:33:27;9.20;;;7.47;;
74632;SDS011;63139;52.018;8.552;2023-04-24T07:35:54;10.93;;;7.10;;
74632;SDS011;63139;52.018;8.552;2023-04-24T07:38:22;10.10;;;7.20;;
74632;SDS011;63139;52.018;8.552;2023-04-24T07:40:53;11.77;;;8.70;;
74632;SDS011;63139;52.018;8.552;2023-04-24T07:43:21;8.82;;;7.88;;
74632;SDS011;63139;52.018;8.552;2023-04-24T07:45:49;8.05;;;6.78;;
74632;SDS011;63139;52.018;8.552;2023-04-24T07:48:18;7.97;;;6.20;;
74632;SDS011;63139;52.018;8.552;2023-04-24T07:50:47;7.38;;;6.03;;
74632;SDS011;63139;52.018;8.552;2023-04-24T07:53:16;9.52;;;5.97;;
74632;SDS011;63139;52.018;8.552;2023-04-24T07:55:43;6.97;;;5.65;;
74632;SDS011;63139;52.018;8.552;2023-04-24T07:58:13;7.32;;;5.43;;
74632;SDS011;63139;52.018;8.552;2023-04-24T08:00:41;8.15;;;5.25;;
74632;SDS011;63139;52.018;8.552;2023-04-24T08:03:09;5.40;;;4.90;;
74632;SDS011;63139;52.018;8.552;2023-04-24T08:05:37;5.25;;;4.28;;
74632;SDS011;63139;52.018;8.552;2023-04-24T08:08:06;7.32;;;4.97;;
74632;SDS011;63139;52.018;8.552;2023-04-24T08:10:34;5.10;;;4.00;;
74632;SDS011;63139;52.018;8.552;2023-04-24T08:13:02;4.53;;;4.13;;
74632;SDS011;63139;52.018;8.552;2023-04-24T08:15:31;7.20;;;4.75;;
74632;SDS011;63139;52.018;8.552;2023-04-24T08:17:58;5.90;;;4.15;;
74632;SDS011;63139;52.018;8.552;2023-04-24T08:20:26;5.00;;;4.50;;
74632;SDS011;63139;52.018;8.552;2023-04-24T08:22:54;4.60;;;3.85;;
74632;SDS011;63139;52.018;8.552;2023-04-24T08:25:22;5.43;;;4.38;;
74632;SDS011;63139;52.018;8.552;2023-04-24T08:27:51;8.20;;;4.82;;
74632;SDS011;63139;52.018;8.552;2023-04-24T08:30:19;3.92;;;3.47;;
74632;SDS011;63139;52.018;8.552;2023-04-24T08:32:48;5.28;;;3.90;;
74632;SDS011;63139;52.018;8.552;2023-04-24T08:35:16;3.85;;;3.55;;
74632;SDS011;63139;52.018;8.552;2023-04-24T08:37:43;5.05;;;3.33;;
74632;SDS011;63139;52.018;8.552;2023-04-24T08:40:12;3.10;;;2.80;;
74632;SDS011;63139;52.018;8.552;2023-04-24T08:42:41;2.92;;;2.47;;
74632;SDS011;63139;52.018;8.552;2023-04-24T08:45:11;2.83;;;2.60;;
74632;SDS011;63139;52.018;8.552;2023-04-24T08:47:40;3.58;;;2.70;;
74632;SDS011;63139;52.018;8.552;2023-04-24T08:50:10;2.63;;;2.42;;
74632;SDS011;63139;52.018;8.552;2023-04-24T08:52:38;2.55;;;2.35;;
74632;SDS011;63139;52.018;8.552;2023-04-24T08:55:07;4.07;;;2.47;;
74632;SDS011;63139;52.018;8.552;2023-04-24T08:57:35;2.17;;;1.98;;
74632;SDS011;63139;52.018;8.552;2023-04-24T09:00:06;2.83;;;2.10;;
74632;SDS011;63139;52.018;8.552;2023-04-24T09:02:39;3.58;;;2.20;;
74632;SDS011;63139;52.018;8.552;2023-04-24T09:05:11;5.60;;;2.78;;
74632;SDS011;63139;52.018;8.552;2023-04-24T09:07:40;2.70;;;2.00;;
74632;SDS011;63139;52.018;8.552;2023-04-24T09:10:11;2.92;;;1.90;;
74632;SDS011;63139;52.018;8.552;2023-04-24T09:12:40;3.22;;;2.38;;
74632;SDS011;63139;52.018;8.552;2023-04-24T09:15:09;2.63;;;1.90;;
74632;SDS011;63139;52.018;8.552;2023-04-24T09:17:38;2.63;;;2.20;;
74632;SDS011;63139;52.018;8.552;2023-04-24T09:20:06;2.33;;;2.10;;
74632;SDS011;63139;52.018;8.552;2023-04-24T09:22:36;2.30;;;2.10;;
74632;SDS011;63139;52.018;8.552;2023-04-24T09:25:05;2.80;;;2.47;;
74632;SDS011;63139;52.018;8.552;2023-04-24T09:27:35;2.30;;;2.10;;
74632;SDS011;63139;52.018;8.552;2023-04-24T09:30:03;2.85;;;2.30;;
74632;SDS011;63139;52.018;8.552;2023-04-24T09:32:31;2.20;;;2.00;;
74632;SDS011;63139;52.018;8.552;2023-04-24T09:35:09;2.10;;;1.90;;
74632;SDS011;63139;52.018;8.552;2023-04-24T09:37:40;1.95;;;1.85;;
74632;SDS011;63139;52.018;8.552;2023-04-24T09:40:10;1.58;;;1.48;;
74632;SDS011;63139;52.018;8.552;2023-04-24T09:42:39;1.77;;;1.67;;
74632;SDS011;63139;52.018;8.552;2023-04-24T09:45:10;1.70;;;1.55;;
74632;SDS011;63139;52.018;8.552;2023-04-24T09:47:41;1.60;;;1.50;;
74632;SDS011;63139;52.018;8.552;2023-04-24T09:50:11;1.98;;;1.75;;
74632;SDS011;63139;52.018;8.552;2023-04-24T09:52:43;1.63;;;1.52;;
74632;SDS011;63139;52.018;8.552;2023-04-24T09:55:12;1.63;;;1.52;;
74632;SDS011;63139;52.018;8.552;2023-04-24T09:57:46;1.70;;;1.60;;
74632;SDS011;63139;52.018;8.552;2023-04-24T10:00:17;2.08;;;1.80;;
74632;SDS011;63139;52.018;8.552;2023-04-24T10:02:56;2.10;;;1.83;;
74632;SDS011;63139;52.018;8.552;2023-04-24T10:05:26;2.40;;;1.80;;
74632;SDS011;63139;52.018;8.552;2023-04-24T10:08:01;2.00;;;1.90;;
74632;SDS011;63139;52.018;8.552;2023-04-24T10:10:32;2.00;;;1.80;;
74632;SDS011;63139;52.018;8.552;2023-04-24T10:13:01;1.90;;;1.65;;
74632;SDS011;63139;52.018;8.552;2023-04-24T10:15:30;1.70;;;1.60;;
74632;SDS011;63139;52.018;8.552;2023-04-24T10:17:59;1.92;;;1.80;;
74632;SDS011;63139;52.018;8.552;2023-04-24T10:20:28;1.90;;;1.80;;
74632;SDS011;63139;52.018;8.552;2023-04-24T10:22:57;2.25;;;1.80;;
74632;SDS011;63139;52.018;8.552;2023-04-24T10:25:28;1.85;;;1.60;;
74632;SDS011;63139;52.018;8.552;2023-04-24T10:27:57;3.40;;;1.80;;
74632;SDS011;63139;52.018;8.552;2023-04-24T10:30:26;2.22;;;1.60;;
74632;SDS011;63139;52.018;8.552;2023-04-24T10:32:55;1.52;;;1.40;;
74632;SDS011;63139;52.018;8.552;2023-04-24T10:35:23;1.23;;;1.15;;
74632;SDS011;63139;52.018;8.552;2023-04-24T10:37:56;1.23;;;1.17;;
74632;SDS011;63139;52.018;8.552;2023-04-24T10:40:29;1.33;;;1.20;;
74632;SDS011;63139;52.018;8.552;2023-04-24T10:42:59;1.92;;;1.50;;
74632;SDS011;63139;52.018;8.552;2023-04-24T10:45:29;1.70;;;1.60;;
74632;SDS011;63139;52.018;8.552;2023-04-24T10:47:57;2.00;;;1.80;;
74632;SDS011;63139;52.018;8.552;2023-04-24T10:50:42;1.88;;;1.70;;
74632;SDS011;63139;52.018;8.552;2023-04-24T10:53:14;1.95;;;1.85;;
74632;SDS011;63139;52.018;8.552;2023-04-24T10:55:46;3.50;;;2.35;;
74632;SDS011;63139;52.018;8.552;2023-04-24T10:58:15;3.60;;;3.20;;
74632;SDS011;63139;52.018;8.552;2023-04-24T11:00:47;3.70;;;3.40;;
74632;SDS011;63139;52.018;8.552;2023-04-24T11:03:25;4.07;;;3.35;;
74632;SDS011;63139;52.018;8.552;2023-04-24T11:05:58;3.47;;;3.03;;
74632;SDS011;63139;52.018;8.552;2023-04-24T11:08:28;3.85;;;3.47;;
74632;SDS011;63139;52.018;8.552;2023-04-24T11:10:59;3.75;;;3.25;;
74632;SDS011;63139;52.018;8.552;2023-04-24T11:16:32;3.45;;;3.15;;
74632;SDS011;63139;52.018;8.552;2023-04-24T11:19:02;3.38;;;3.05;;
74632;SDS011;63139;52.018;8.552;2023-04-24T11:21:40;3.50;;;3.00;;
74632;SDS011;63139;52.018;8.552;2023-04-24T11:24:23;4.13;;;2.93;;
74632;SDS011;63139;52.018;8.552;2023-04-24T11:26:56;3.63;;;2.72;;
74632;SDS011;63139;52.018;8.552;2023-04-24T11:29:38;5.68;;;3.20;;
74632;SDS011;63139;52.018;8.552;2023-04-24T11:34:54;3.95;;;2.30;;
74632;SDS011;63139;52.018;8.552;2023-04-24T11:37:23;3.25;;;2.00;;
74632;SDS011;63139;52.018;8.552;2023-04-24T11:39:52;1.92;;;1.80;;
74632;SDS011;63139;52.018;8.552;2023-04-24T11:42:22;1.60;;;1.50;;
74632;SDS011;63139;52.018;8.552;2023-04-24T11:44:52;1.83;;;1.70;;
74632;SDS011;63139;52.018;8.552;2023-04-24T11:47:27;1.42;;;1.33;;
74632;SDS011;63139;52.018;8.552;2023-04-24T11:49:56;1.60;;;1.50;;
74632;SDS011;63139;52.018;8.552;2023-04-24T11:52:24;1.52;;;1.42;;
74632;SDS011;63139;52.018;8.552;2023-04-24T11:54:53;1.40;;;1.30;;
74632;SDS011;63139;52.018;8.552;2023-04-24T11:57:20;1.75;;;1.30;;
74632;SDS011;63139;52.018;8.552;2023-04-24T11:59:54;1.17;;;1.08;;
74632;SDS011;63139;52.018;8.552;2023-04-24T12:02:22;1.40;;;1.30;;
74632;SDS011;63139;52.018;8.552;2023-04-24T12:04:51;1.60;;;1.50;;
74632;SDS011;63139;52.018;8.552;2023-04-24T12:07:20;2.05;;;1.80;;
74632;SDS011;63139;52.018;8.552;2023-04-24T12:09:49;2.40;;;2.20;;
74632;SDS011;63139;52.018;8.552;2023-04-24T12:12:24;2.53;;;2.20;;
74632;SDS011;63139;52.018;8.552;2023-04-24T12:14:54;2.10;;;1.90;;
74632;SDS011;63139;52.018;8.552;2023-04-24T12:17:23;3.30;;;2.47;;
74632;SDS011;63139;52.018;8.552;2023-04-24T12:19:57;2.13;;;1.83;;
74632;SDS011;63139;52.018;8.552;2023-04-24T12:22:25;2.55;;;1.92;;
74632;SDS011;63139;52.018;8.552;2023-04-24T12:25:00;3.72;;;2.30;;
74632;SDS011;63139;52.018;8.552;2023-04-24T12:27:31;2.85;;;2.22;;
74632;SDS011;63139;52.018;8.552;2023-04-24T12:30:01;2.72;;;2.25;;
74632;SDS011;63139;52.018;8.552;2023-04-24T12:32:31;3.95;;;2.30;;
74632;SDS011;63139;52.018;8.552;2023-04-24T12:34:59;3.83;;;2.42;;
74632;SDS011;63139;52.018;8.552;2023-04-24T12:37:26;4.75;;;2.72;;
74632;SDS011;63139;52.018;8.552;2023-04-24T12:40:01;4.03;;;2.80;;
74632;SDS011;63139;52.018;8.552;2023-04-24T12:42:34;4.07;;;3.03;;
74632;SDS011;63139;52.018;8.552;2023-04-24T12:45:03;10.43;;;3.25;;
74632;SDS011;63139;52.018;8.552;2023-04-24T12:47:32;3.53;;;2.90;;
74632;SDS011;63139;52.018;8.552;2023-04-24T12:50:01;4.22;;;3.20;;
74632;SDS011;63139;52.018;8.552;2023-04-24T12:52:29;6.90;;;3.30;;
74632;SDS011;63139;52.018;8.552;2023-04-24T12:54:58;4.70;;;3.35;;
74632;SDS011;63139;52.018;8.552;2023-04-24T12:57:27;5.22;;;3.42;;
74632;SDS011;63139;52.018;8.552;2023-04-24T12:59:58;5.93;;;3.50;;
74632;SDS011;63139;52.018;8.552;2023-04-24T13:02:27;5.93;;;3.50;;
74632;SDS011;63139;52.018;8.552;2023-04-24T13:04:57;4.78;;;3.50;;
74632;SDS011;63139;52.018;8.552;2023-04-24T13:07:25;5.80;;;3.80;;
74632;SDS011;63139;52.018;8.552;2023-04-24T13:09:54;6.43;;;3.15;;
74632;SDS011;63139;52.018;8.552;2023-04-24T13:12:23;4.68;;;3.15;;
74632;SDS011;63139;52.018;8.552;2023-04-24T13:14:52;8.70;;;3.97;;
74632;SDS011;63139;52.018;8.552;2023-04-24T13:17:21;5.10;;;3.47;;
74632;SDS011;63139;52.018;8.552;2023-04-24T13:19:49;5.03;;;3.10;;
74632;SDS011;63139;52.018;8.552;2023-04-24T13:22:18;4.40;;;3.33;;
74632;SDS011;63139;52.018;8.552;2023-04-24T13:24:46;3.50;;;3.08;;
74632;SDS011;63139;52.018;8.552;2023-04-24T13:27:14;5.80;;;3.80;;
74632;SDS011;63139;52.018;8.552;2023-04-24T13:29:42;4.45;;;3.20;;
74632;SDS011;63139;52.018;8.552;2023-04-24T13:32:10;6.80;;;3.20;;
74632;SDS011;63139;52.018;8.552;2023-04-24T13:34:40;4.57;;;3.00;;
74632;SDS011;63139;52.018;8.552;2023-04-24T13:37:07;4.57;;;3.00;;
74632;SDS011;63139;52.018;8.552;2023-04-24T13:39:35;4.55;;;3.17;;
74632;SDS011;63139;52.018;8.552;2023-04-24T13:42:03;7.90;;;3.20;;
74632;SDS011;63139;52.018;8.552;2023-04-24T13:44:31;8.55;;;4.47;;
74632;SDS011;63139;52.018;8.552;2023-04-24T13:46:59;5.75;;;3.53;;
74632;SDS011;63139;52.018;8.552;2023-04-24T13:49:26;11.15;;;4.32;;
74632;SDS011;63139;52.018;8.552;2023-04-24T13:51:56;5.55;;;3.75;;
74632;SDS011;63139;52.018;8.552;2023-04-24T13:54:24;8.50;;;3.97;;
74632;SDS011;63139;52.018;8.552;2023-04-24T13:56:52;8.52;;;3.97;;
74632;SDS011;63139;52.018;8.552;2023-04-24T13:59:20;10.13;;;4.30;;
74632;SDS011;63139;52.018;8.552;2023-04-24T14:01:48;9.20;;;4.10;;
74632;SDS011;63139;52.018;8.552;2023-04-24T14:04:16;8.45;;;4.60;;
74632;SDS011;63139;52.018;8.552;2023-04-24T14:06:44;9.35;;;4.30;;
74632;SDS011;63139;52.018;8.552;2023-04-24T14:09:13;11.30;;;5.20;;
74632;SDS011;63139;52.018;8.552;2023-04-24T14:11:41;9.18;;;5.45;;
74632;SDS011;63139;52.018;8.552;2023-04-24T14:14:09;12.23;;;4.75;;
74632;SDS011;63139;52.018;8.552;2023-04-24T14:16:37;10.38;;;4.65;;
74632;SDS011;63139;52.018;8.552;2023-04-24T14:19:05;10.00;;;4.75;;
74632;SDS011;63139;52.018;8.552;2023-04-24T14:21:33;10.23;;;4.82;;
74632;SDS011;63139;52.018;8.552;2023-04-24T14:24:01;8.55;;;3.60;;
74632;SDS011;63139;52.018;8.552;2023-04-24T14:26:30;7.53;;;3.60;;
74632;SDS011;63139;52.018;8.552;2023-04-24T14:28:58;7.93;;;3.97;;
74632;SDS011;63139;52.018;8.552;2023-04-24T14:31:29;13.73;;;4.53;;
74632;SDS011;63139;52.018;8.552;2023-04-24T14:33:57;8.73;;;4.25;;
74632;SDS011;63139;52.018;8.552;2023-04-24T14:36:24;8.52;;;3.92;;
74632;SDS011;63139;52.018;8.552;2023-04-24T14:38:52;7.35;;;4.22;;
74632;SDS011;63139;52.018;8.552;2023-04-24T14:41:20;9.43;;;4.63;;
74632;SDS011;63139;52.018;8.552;2023-04-24T14:43:49;9.48;;;4.00;;
74632;SDS011;63139;52.018;8.552;2023-04-24T14:46:17;8.82;;;3.92;;
74632;SDS011;63139;52.018;8.552;2023-04-24T14:48:45;7.78;;;3.70;;
74632;SDS011;63139;52.018;8.552;2023-04-24T14:51:13;7.90;;;4.05;;
74632;SDS011;63139;52.018;8.552;2023-04-24T14:53:40;8.80;;;3.80;;
74632;SDS011;63139;52.018;8.552;2023-04-24T14:56:09;11.50;;;4.40;;
74632;SDS011;63139;52.018;8.552;2023-04-24T14:58:36;7.57;;;4.05;;
74632;SDS011;63139;52.018;8.552;2023-04-24T15:01:06;8.90;;;4.00;;
74632;SDS011;63139;52.018;8.552;2023-04-24T15:03:34;8.20;;;3.53;;
74632;SDS011;63139;52.018;8.552;2023-04-24T15:06:02;7.93;;;3.67;;